createdAt,value
2023-05-01T00:00:27.587Z,241.06
2023-05-01T00:01:27.702Z,239.48
2023-05-01T00:02:28.027Z,238.44
2023-05-01T00:03:27.816Z,243.32
2023-05-01T00:04:27.666Z,244.15
2023-05-01T00:05:27.550Z,251.39
2023-05-01T00:06:27.975Z,248.53
2023-05-01T00:07:28.304Z,244.94
2023-05-01T00:08:27.505Z,240.36
2023-05-01T00:09:27.862Z,233.90
2023-05-01T00:10:27.579Z,227.57
2023-05-01T00:11:27.576Z,227.40
2023-05-01T00:12:27.487Z,229.45
2023-05-01T00:13:27.534Z,229.20
2023-05-01T00:14:27.537Z,230.68
2023-05-01T00:15:27.494Z,235.32
2023-05-01T00:16:27.577Z,234.67
2023-05-01T00:17:27.832Z,234.17
2023-05-01T00:18:27.516Z,238.23
2023-05-01T00:19:27.484Z,242.85
2023-05-01T00:20:27.441Z,244.06
2023-05-01T00:21:27.433Z,243.96
2023-05-01T00:22:27.813Z,244.35
2023-05-01T00:23:27.426Z,242.81
2023-05-01T00:24:27.435Z,243.55
2023-05-01T00:25:27.417Z,247.98
2023-05-01T00:26:27.443Z,248.08
2023-05-01T00:27:27.441Z,248.06
2023-05-01T00:28:27.411Z,246.35
2023-05-01T00:29:27.401Z,241.23
2023-05-01T00:30:27.381Z,242.82
2023-05-01T00:31:27.491Z,240.12
2023-05-01T00:32:27.379Z,244.00
2023-05-01T00:33:27.361Z,243.92
2023-05-01T00:34:27.349Z,242.09
2023-05-01T00:35:27.333Z,241.91
2023-05-01T00:36:27.401Z,240.02
2023-05-01T00:37:27.370Z,240.65
2023-05-01T00:38:27.326Z,239.60
2023-05-01T00:39:27.626Z,240.00
2023-05-01T00:40:27.340Z,246.35
2023-05-01T00:41:27.308Z,249.65
2023-05-01T00:42:27.295Z,249.93
2023-05-01T00:43:27.294Z,245.13
2023-05-01T00:44:27.662Z,243.92
2023-05-01T00:45:27.250Z,242.23
2023-05-01T00:46:27.338Z,243.50
2023-05-01T00:47:27.313Z,242.87
2023-05-01T00:48:27.211Z,245.89
2023-05-01T00:49:27.258Z,250.00
2023-05-01T00:50:27.279Z,247.96
2023-05-01T00:51:27.257Z,247.66
2023-05-01T00:52:27.218Z,250.00
2023-05-01T00:53:27.254Z,249.50
2023-05-01T00:54:27.857Z,247.62
2023-05-01T00:55:27.270Z,247.04
2023-05-01T00:56:27.417Z,247.55
2023-05-01T00:57:27.315Z,248.85
2023-05-01T00:58:27.288Z,247.93
2023-05-01T00:59:27.409Z,247.71
2023-05-01T01:00:27.321Z,250.00
2023-05-01T01:01:27.390Z,249.86
2023-05-01T01:02:27.460Z,248.87
2023-05-01T01:03:27.379Z,250.00
2023-05-01T01:04:27.427Z,248.96
2023-05-01T01:05:27.381Z,250.00
2023-05-01T01:06:27.426Z,248.65
2023-05-01T01:07:27.416Z,247.70
2023-05-01T01:08:27.414Z,244.70
2023-05-01T01:09:27.427Z,240.91
2023-05-01T01:10:27.433Z,235.87
2023-05-01T01:11:27.447Z,237.60
2023-05-01T01:12:27.434Z,238.57
2023-05-01T01:13:27.448Z,239.73
2023-05-01T01:14:27.484Z,245.60
2023-05-01T01:15:27.530Z,247.45
2023-05-01T01:16:27.597Z,245.50
2023-05-01T01:17:27.619Z,247.05
2023-05-01T01:18:27.612Z,246.70
2023-05-01T01:19:27.620Z,248.94
2023-05-01T01:20:27.670Z,249.45
2023-05-01T01:21:27.781Z,247.74
2023-05-01T01:22:27.791Z,244.28
2023-05-01T01:23:27.796Z,240.13
2023-05-01T01:24:27.892Z,240.45
2023-05-01T01:25:27.845Z,242.12
2023-05-01T01:26:27.889Z,244.43
2023-05-01T01:27:27.912Z,240.69
2023-05-01T01:28:27.963Z,237.59
2023-05-01T01:29:27.915Z,236.47
2023-05-01T01:30:28.260Z,234.62
2023-05-01T01:31:28.040Z,235.35
2023-05-01T01:32:28.009Z,234.58
2023-05-01T01:33:28.009Z,235.85
2023-05-01T01:34:28.067Z,237.20
2023-05-01T01:35:28.132Z,238.19
2023-05-01T01:36:28.080Z,234.93
2023-05-01T01:37:28.090Z,235.24
2023-05-01T01:38:28.091Z,234.91
2023-05-01T01:39:28.078Z,235.00
2023-05-01T01:40:28.070Z,239.05
2023-05-01T01:41:28.116Z,237.93
2023-05-01T01:42:28.161Z,237.20
2023-05-01T01:43:28.196Z,235.52
2023-05-01T01:44:28.200Z,235.27
2023-05-01T01:45:28.215Z,230.72
2023-05-01T01:46:28.237Z,227.72
2023-05-01T01:47:28.282Z,232.56
2023-05-01T01:48:28.273Z,226.87
2023-05-01T01:49:28.323Z,222.58
2023-05-01T01:50:28.313Z,221.56
2023-05-01T01:51:28.363Z,223.45
2023-05-01T01:52:28.358Z,225.47
2023-05-01T01:53:28.419Z,224.35
2023-05-01T01:54:28.424Z,225.48
2023-05-01T01:55:28.477Z,226.70
2023-05-01T01:56:28.551Z,225.60
2023-05-01T01:57:28.559Z,223.27
2023-05-01T01:58:28.596Z,224.10
2023-05-01T01:59:28.612Z,227.06
2023-05-01T02:00:28.673Z,223.99
2023-05-01T02:01:28.784Z,223.97
2023-05-01T02:02:28.803Z,228.24
2023-05-01T02:03:28.881Z,231.78
2023-05-01T02:04:28.845Z,232.04
2023-05-01T02:05:28.874Z,229.95
2023-05-01T02:06:28.905Z,224.89
2023-05-01T02:07:28.881Z,226.97
2023-05-01T02:08:28.893Z,234.34
2023-05-01T02:09:28.915Z,237.69
2023-05-01T02:10:28.925Z,238.81
2023-05-01T02:11:28.988Z,232.36
2023-05-01T02:12:29.018Z,231.59
2023-05-01T02:13:29.940Z,222.71
2023-05-01T02:14:29.060Z,225.54
2023-05-01T02:15:29.069Z,229.80
2023-05-01T02:16:29.150Z,237.79
2023-05-01T02:17:29.160Z,244.82
2023-05-01T02:18:29.138Z,247.88
2023-05-01T02:19:29.191Z,247.81
2023-05-01T02:20:29.238Z,248.39
2023-05-01T02:21:29.327Z,249.67
2023-05-01T02:22:29.316Z,250.00
2023-05-01T02:23:29.317Z,250.00
2023-05-01T02:24:29.427Z,249.18
2023-05-01T02:25:29.688Z,244.07
2023-05-01T02:26:30.387Z,244.82
2023-05-01T02:27:29.488Z,243.84
2023-05-01T02:28:29.577Z,244.92
2023-05-01T02:29:29.559Z,247.59
2023-05-01T02:30:29.580Z,248.10
2023-05-01T02:31:29.699Z,248.07
2023-05-01T02:32:29.675Z,245.40
2023-05-01T02:33:29.695Z,245.29
2023-05-01T02:34:29.707Z,243.99
2023-05-01T02:35:29.783Z,244.89
2023-05-01T02:36:30.243Z,245.05
2023-05-01T02:37:29.836Z,244.81
2023-05-01T02:38:29.893Z,240.11
2023-05-01T02:39:29.916Z,237.52
2023-05-01T02:40:29.917Z,239.66
2023-05-01T02:41:29.986Z,237.01
2023-05-01T02:42:29.998Z,236.37
2023-05-01T02:43:30.047Z,231.51
2023-05-01T02:44:30.107Z,234.66
2023-05-01T02:45:30.244Z,239.47
2023-05-01T02:46:30.295Z,238.37
2023-05-01T02:47:30.216Z,234.16
2023-05-01T02:48:30.196Z,233.90
2023-05-01T02:49:30.223Z,237.85
2023-05-01T02:50:30.381Z,239.68
2023-05-01T02:51:30.654Z,240.51
2023-05-01T02:52:30.393Z,239.31
2023-05-01T02:53:30.427Z,241.22
2023-05-01T02:54:30.463Z,240.22
2023-05-01T02:55:30.435Z,241.48
2023-05-01T02:56:30.494Z,245.93
2023-05-01T02:57:30.482Z,249.84
2023-05-01T02:58:31.380Z,250.00
2023-05-01T02:59:30.522Z,250.00
2023-05-01T03:00:30.587Z,249.75
2023-05-01T03:01:30.669Z,248.24
2023-05-01T03:02:30.605Z,247.09
2023-05-01T03:03:30.651Z,246.61
2023-05-01T03:04:30.744Z,245.70
2023-05-01T03:05:30.716Z,242.13
2023-05-01T03:06:30.846Z,240.35
2023-05-01T03:07:30.797Z,241.25
2023-05-01T03:08:30.827Z,243.64
2023-05-01T03:09:30.864Z,246.18
2023-05-01T03:10:30.893Z,247.26
2023-05-01T03:11:30.985Z,249.09
2023-05-01T03:12:31.037Z,249.78
2023-05-01T03:13:31.036Z,249.72
2023-05-01T03:14:31.118Z,246.98
2023-05-01T03:15:31.183Z,247.60
2023-05-01T03:16:31.253Z,248.91
2023-05-01T03:17:31.248Z,248.56
2023-05-01T03:18:31.254Z,247.72
2023-05-01T03:19:31.276Z,250.00
2023-05-01T03:20:31.313Z,250.00
2023-05-01T03:21:31.366Z,249.61
2023-05-01T03:22:31.355Z,248.24
2023-05-01T03:23:31.412Z,244.40
2023-05-01T03:24:31.431Z,245.15
2023-05-01T03:25:31.432Z,246.00
2023-05-01T03:26:31.516Z,244.12
2023-05-01T03:27:31.519Z,242.75
2023-05-01T03:28:31.587Z,244.28
2023-05-01T03:29:31.575Z,242.77
2023-05-01T03:30:31.621Z,240.43
2023-05-01T03:31:31.642Z,241.21
2023-05-01T03:32:31.657Z,240.66
2023-05-01T03:33:31.681Z,244.01
2023-05-01T03:34:31.707Z,248.79
2023-05-01T03:35:31.834Z,248.64
2023-05-01T03:36:31.804Z,247.01
2023-05-01T03:37:31.814Z,246.41
2023-05-01T03:38:31.817Z,247.32
2023-05-01T03:39:31.884Z,246.25
2023-05-01T03:40:31.871Z,249.50
2023-05-01T03:41:31.948Z,250.00
2023-05-01T03:42:31.950Z,250.00
2023-05-01T03:43:32.118Z,249.89
2023-05-01T03:44:32.074Z,250.00
2023-05-01T03:45:32.123Z,250.00
2023-05-01T03:46:32.359Z,250.00
2023-05-01T03:47:32.256Z,250.00
2023-05-01T03:48:32.292Z,249.93
2023-05-01T03:49:32.304Z,248.16
2023-05-01T03:50:32.318Z,247.08
2023-05-01T03:51:32.678Z,247.75
2023-05-01T03:52:32.382Z,247.92
2023-05-01T03:53:32.538Z,246.59
2023-05-01T03:54:32.529Z,243.57
2023-05-01T03:55:32.572Z,242.42
2023-05-01T03:56:32.621Z,240.19
2023-05-01T03:57:32.723Z,240.87
2023-05-01T03:58:32.771Z,240.05
2023-05-01T03:59:32.787Z,242.08
2023-05-01T04:00:32.917Z,242.12
2023-05-01T04:01:32.959Z,241.33
2023-05-01T04:02:33.067Z,240.56
2023-05-01T04:03:33.136Z,239.45
2023-05-01T04:04:33.277Z,237.56
2023-05-01T04:05:33.152Z,236.25
2023-05-01T04:06:33.283Z,235.22
2023-05-01T04:07:33.254Z,239.21
2023-05-01T04:08:33.323Z,239.93
2023-05-01T04:09:33.323Z,240.99
2023-05-01T04:10:33.424Z,242.50
2023-05-01T04:11:33.437Z,245.56
2023-05-01T04:12:33.489Z,244.18
2023-05-01T04:13:33.496Z,242.87
2023-05-01T04:14:33.865Z,242.52
2023-05-01T04:15:33.921Z,243.07
2023-05-01T04:16:33.754Z,246.12
2023-05-01T04:17:33.719Z,247.02
2023-05-01T04:18:33.729Z,246.56
2023-05-01T04:19:33.839Z,249.17
2023-05-01T04:20:34.156Z,249.80
2023-05-01T04:21:33.860Z,250.00
2023-05-01T04:22:33.920Z,247.34
2023-05-01T04:23:34.278Z,245.38
2023-05-01T04:24:33.965Z,244.19
2023-05-01T04:25:34.053Z,244.72
2023-05-01T04:26:34.087Z,245.62
2023-05-01T04:27:34.108Z,246.34
2023-05-01T04:28:34.518Z,245.28
2023-05-01T04:29:34.263Z,245.20
2023-05-01T04:30:34.280Z,245.36
2023-05-01T04:31:34.365Z,245.11
2023-05-01T04:32:34.719Z,243.80
2023-05-01T04:33:34.398Z,245.34
2023-05-01T04:34:34.410Z,246.85
2023-05-01T04:35:34.416Z,247.63
2023-05-01T04:36:34.829Z,248.29
2023-05-01T04:37:34.478Z,248.47
2023-05-01T04:38:34.552Z,249.15
2023-05-01T04:39:34.540Z,250.00
2023-05-01T04:40:34.590Z,250.00
2023-05-01T04:41:34.592Z,250.00
2023-05-01T04:42:34.622Z,249.71
2023-05-01T04:43:34.750Z,249.70
2023-05-01T04:44:34.692Z,249.37
2023-05-01T04:45:34.697Z,249.38
2023-05-01T04:46:34.779Z,249.71
2023-05-01T04:47:34.812Z,249.62
2023-05-01T04:48:34.816Z,248.42
2023-05-01T04:49:34.827Z,244.67
2023-05-01T04:50:34.844Z,244.91
2023-05-01T04:51:34.856Z,245.43
2023-05-01T04:52:34.874Z,244.69
2023-05-01T04:53:34.911Z,245.03
2023-05-01T04:54:34.920Z,246.03
2023-05-01T04:55:34.941Z,246.38
2023-05-01T04:56:34.972Z,245.06
2023-05-01T04:57:35.024Z,243.20
2023-05-01T04:58:35.010Z,240.59
2023-05-01T04:59:34.964Z,240.41
2023-05-01T05:00:35.021Z,240.06
2023-05-01T05:02:54.710Z,25.00
2023-05-01T05:03:55.528Z,25.00
2023-05-01T05:04:54.658Z,25.00
2023-05-01T05:05:54.645Z,25.00
2023-05-01T05:06:54.674Z,25.00
2023-05-01T05:07:54.636Z,25.33
2023-05-01T05:08:54.635Z,33.13
2023-05-01T05:09:54.807Z,43.74
2023-05-01T05:10:54.594Z,49.40
2023-05-01T05:11:54.692Z,52.71
2023-05-01T05:12:54.606Z,52.12
2023-05-01T05:13:54.542Z,27.44
2023-05-01T05:14:54.619Z,36.93
2023-05-01T05:15:54.593Z,55.50
2023-05-01T05:16:54.615Z,77.43
2023-05-01T05:17:56.490Z,81.24
2023-05-01T05:18:54.556Z,63.02
2023-05-01T05:19:55.688Z,58.13
2023-05-01T05:20:54.543Z,79.97
2023-05-01T05:21:54.501Z,91.27
2023-05-01T05:22:54.511Z,89.51
2023-05-01T05:23:54.481Z,74.82
2023-05-01T05:24:54.480Z,61.26
2023-05-01T05:25:54.468Z,65.58
2023-05-01T05:26:54.691Z,47.41
2023-05-01T05:27:54.545Z,29.43
2023-05-01T05:28:54.560Z,25.37
2023-05-01T05:29:54.768Z,35.42
2023-05-01T05:30:54.558Z,30.48
2023-05-01T05:31:54.627Z,33.58
2023-05-01T05:32:54.568Z,29.93
2023-05-01T05:33:54.559Z,25.00
2023-05-01T05:34:54.597Z,25.02
2023-05-01T05:35:54.618Z,27.72
2023-05-01T05:36:54.692Z,50.30
2023-05-01T05:37:54.682Z,60.74
2023-05-01T05:38:54.662Z,47.81
2023-05-01T05:39:54.826Z,54.04
2023-05-01T05:40:54.710Z,69.74
2023-05-01T05:41:54.709Z,52.77
2023-05-01T05:42:54.644Z,43.66
2023-05-01T05:43:54.748Z,40.35
2023-05-01T05:44:54.810Z,42.63
2023-05-01T05:46:02.565Z,54.56
2023-05-01T05:46:54.910Z,54.99
2023-05-01T05:47:54.882Z,52.09
2023-05-01T05:48:54.829Z,54.41
2023-05-01T05:49:55.056Z,48.72
2023-05-01T05:50:54.843Z,59.56
2023-05-01T05:51:54.825Z,56.43
2023-05-01T05:52:54.811Z,59.26
2023-05-01T05:53:54.862Z,63.34
2023-05-01T05:54:54.784Z,66.02
2023-05-01T05:55:54.809Z,55.06
2023-05-01T05:56:54.889Z,43.45
2023-05-01T05:57:54.801Z,25.02
2023-05-01T05:58:54.774Z,27.50
2023-05-01T05:59:55.000Z,25.00
2023-05-01T06:00:54.788Z,37.29
2023-05-01T06:01:55.060Z,43.39
2023-05-01T06:02:54.902Z,52.27
2023-05-01T06:03:54.809Z,75.78
2023-05-01T06:04:54.789Z,58.44
2023-05-01T06:05:54.935Z,58.63
2023-05-01T06:06:54.930Z,70.75
2023-05-01T06:07:54.701Z,74.97
2023-05-01T06:08:54.720Z,71.72
2023-05-01T06:09:54.957Z,66.27
2023-05-01T06:10:54.729Z,109.62
2023-05-01T06:11:54.846Z,93.46
2023-05-01T06:12:59.665Z,59.92
2023-05-01T06:13:55.900Z,47.38
2023-05-01T06:14:54.885Z,38.35
2023-05-01T06:15:55.730Z,40.36
2023-05-01T06:16:54.795Z,45.66
2023-05-01T06:17:54.853Z,66.46
2023-05-01T06:18:54.879Z,61.34
2023-05-01T06:19:55.136Z,67.92
2023-05-01T06:20:54.777Z,72.42
2023-05-01T06:21:54.806Z,78.52
2023-05-01T06:22:54.805Z,71.73
2023-05-01T06:23:54.827Z,76.65
2023-05-01T06:24:54.832Z,82.26
2023-05-01T06:25:54.858Z,75.11
2023-05-01T06:26:54.853Z,50.06
2023-05-01T06:27:54.871Z,14.47
2023-05-01T06:28:54.858Z,24.89
2023-05-01T06:29:55.067Z,25.00
2023-05-01T06:30:54.956Z,26.31
2023-05-01T06:31:54.998Z,29.95
2023-05-01T06:32:54.973Z,49.94
2023-05-01T06:33:54.910Z,33.52
2023-05-01T06:34:55.005Z,26.38
2023-05-01T06:35:54.995Z,25.00
2023-05-01T06:36:54.999Z,25.00
2023-05-01T06:37:55.087Z,25.54
2023-05-01T06:38:55.101Z,25.00
2023-05-01T06:39:55.340Z,36.72
2023-05-01T06:40:55.267Z,26.51
2023-05-01T06:41:55.367Z,12.93
2023-05-01T06:42:55.342Z,30.85
2023-05-01T06:43:55.378Z,10.59
2023-05-01T06:44:55.361Z,2.87
2023-05-01T06:45:55.392Z,0.00
2023-05-01T06:46:55.514Z,0.00
2023-05-01T06:47:55.726Z,2.47
2023-05-01T06:48:55.577Z,17.23
2023-05-01T06:49:55.798Z,20.77
2023-05-01T06:50:55.601Z,26.98
2023-05-01T06:51:55.590Z,42.40
2023-05-01T06:52:55.591Z,63.47
2023-05-01T06:53:55.634Z,42.39
2023-05-01T06:54:55.650Z,22.68
2023-05-01T06:55:55.611Z,15.59
2023-05-01T06:56:55.651Z,25.00
2023-05-01T06:57:55.664Z,36.81
2023-05-01T06:58:55.673Z,83.47
2023-05-01T06:59:55.906Z,90.63
2023-05-01T07:00:55.618Z,44.93
2023-05-01T07:01:55.730Z,2.07
2023-05-01T07:02:55.748Z,0.00
2023-05-01T07:03:56.096Z,31.18
2023-05-01T07:04:55.869Z,25.47
2023-05-01T07:05:55.931Z,49.66
2023-05-01T07:06:55.968Z,36.97
2023-05-01T07:08:01.367Z,34.55
2023-05-01T07:08:57.081Z,0.00
2023-05-01T07:09:56.108Z,11.93
2023-05-01T07:10:55.974Z,28.91
2023-05-01T07:11:55.981Z,13.63
2023-05-01T07:12:55.950Z,0.00
2023-05-01T07:13:55.982Z,1.43
2023-05-01T07:14:56.023Z,23.83
2023-05-01T07:15:56.070Z,25.00
2023-05-01T07:16:56.043Z,25.35
2023-05-01T07:17:56.071Z,29.00
2023-05-01T07:18:56.115Z,73.19
2023-05-01T07:19:56.260Z,70.75
2023-05-01T07:20:56.143Z,56.13
2023-05-01T07:21:56.243Z,54.49
2023-05-01T07:22:56.263Z,55.02
2023-05-01T07:23:56.382Z,60.35
2023-05-01T07:24:56.361Z,26.76
2023-05-01T07:25:56.376Z,28.72
2023-05-01T07:27:07.257Z,25.72
2023-05-01T07:27:56.364Z,12.45
2023-05-01T07:28:56.334Z,0.00
2023-05-01T07:29:56.601Z,23.64
2023-05-01T07:30:56.339Z,28.89
2023-05-01T07:31:56.460Z,16.41
2023-05-01T07:32:56.373Z,0.00
2023-05-01T07:33:56.407Z,0.00
2023-05-01T07:34:56.315Z,27.05
2023-05-01T07:35:56.330Z,52.88
2023-05-01T07:36:56.440Z,86.96
2023-05-01T07:37:56.366Z,203.75
2023-05-01T07:38:56.397Z,285.36
2023-05-01T07:39:56.815Z,335.18
2023-05-01T07:40:56.568Z,302.25
2023-05-01T07:41:56.668Z,298.35
2023-05-01T07:42:56.674Z,289.40
2023-05-01T07:43:56.614Z,274.97
2023-05-01T07:44:56.693Z,250.00
2023-05-01T07:45:56.757Z,238.51
2023-05-01T07:46:56.715Z,222.88
2023-05-01T07:47:56.754Z,218.69
2023-05-01T07:48:56.821Z,223.77
2023-05-01T07:49:56.867Z,228.04
2023-05-01T07:50:56.842Z,244.78
2023-05-01T07:51:56.938Z,248.60
2023-05-01T07:52:56.848Z,249.07
2023-05-01T07:53:56.904Z,257.05
2023-05-01T07:54:56.985Z,230.68
2023-05-01T07:55:57.062Z,225.23
2023-05-01T07:56:57.102Z,246.95
2023-05-01T07:57:57.111Z,248.79
2023-05-01T07:58:57.088Z,246.89
2023-05-01T07:59:57.350Z,216.64
2023-05-01T08:00:57.202Z,209.04
2023-05-01T08:01:57.256Z,223.20
2023-05-01T08:02:57.222Z,227.21
2023-05-01T08:03:57.339Z,231.09
2023-05-01T08:04:57.245Z,229.36
2023-05-01T08:05:57.325Z,210.68
2023-05-01T08:06:57.443Z,209.56
2023-05-01T08:07:57.308Z,222.09
2023-05-01T08:08:57.370Z,193.76
2023-05-01T08:09:59.995Z,191.71
2023-05-01T08:10:57.375Z,215.25
2023-05-01T08:11:57.360Z,198.63
2023-05-01T08:12:57.637Z,194.35
2023-05-01T08:13:57.354Z,192.30
2023-05-01T08:14:57.306Z,188.73
2023-05-01T08:15:57.313Z,175.37
2023-05-01T08:16:57.379Z,151.45
2023-05-01T08:17:57.284Z,150.45
2023-05-01T08:18:57.235Z,157.71
2023-05-01T08:19:57.363Z,130.63
2023-05-01T08:20:57.264Z,119.17
2023-05-01T08:21:57.290Z,123.65
2023-05-01T08:22:57.267Z,113.64
2023-05-01T08:23:57.263Z,112.93
2023-05-01T08:24:57.223Z,118.17
2023-05-01T08:25:57.289Z,121.73
2023-05-01T08:26:57.229Z,126.74
2023-05-01T08:27:57.263Z,130.42
2023-05-01T08:28:57.207Z,105.14
2023-05-01T08:29:57.432Z,95.71
2023-05-01T08:30:57.236Z,102.21
2023-05-01T08:31:57.226Z,95.63
2023-05-01T08:32:57.287Z,91.26
2023-05-01T08:33:57.233Z,76.67
2023-05-01T08:34:57.238Z,64.89
2023-05-01T08:35:57.155Z,84.92
2023-05-01T08:36:57.257Z,69.08
2023-05-01T08:37:57.154Z,83.31
2023-05-01T08:38:57.160Z,84.56
2023-05-01T08:39:57.340Z,101.83
2023-05-01T08:40:57.107Z,110.29
2023-05-01T08:41:57.154Z,113.14
2023-05-01T08:42:57.214Z,98.03
2023-05-01T08:43:57.128Z,81.05
2023-05-01T08:44:57.118Z,65.72
2023-05-01T08:45:57.122Z,45.94
2023-05-01T08:46:57.166Z,57.19
2023-05-01T08:47:57.106Z,60.78
2023-05-01T08:48:57.051Z,23.33
2023-05-01T08:49:57.327Z,26.43
2023-05-01T08:50:57.064Z,34.68
2023-05-01T08:51:57.107Z,46.22
2023-05-01T08:52:57.052Z,70.15
2023-05-01T08:53:57.082Z,63.84
2023-05-01T08:54:57.045Z,68.09
2023-05-01T08:55:57.052Z,33.94
2023-05-01T08:56:57.001Z,7.30
2023-05-01T08:57:57.001Z,18.69
2023-05-01T08:58:57.012Z,23.27
2023-05-01T08:59:57.204Z,27.26
2023-05-01T09:00:57.007Z,25.01
2023-05-01T09:01:57.019Z,31.32
2023-05-01T09:02:56.998Z,28.00
2023-05-01T09:03:57.017Z,24.24
2023-05-01T09:04:57.015Z,22.50
2023-05-01T09:05:57.081Z,41.40
2023-05-01T09:06:57.101Z,43.17
2023-05-01T09:07:57.176Z,49.87
2023-05-01T09:08:57.210Z,70.42
2023-05-01T09:09:57.420Z,81.15
2023-05-01T09:10:57.296Z,85.16
2023-05-01T09:11:57.361Z,70.05
2023-05-01T09:12:57.372Z,74.67
2023-05-01T09:13:57.414Z,60.51
2023-05-01T09:14:57.406Z,71.82
2023-05-01T09:15:57.556Z,61.38
2023-05-01T09:16:57.564Z,51.60
2023-05-01T09:17:57.572Z,60.70
2023-05-01T09:18:57.512Z,68.33
2023-05-01T09:19:57.725Z,85.52
2023-05-01T09:20:57.597Z,78.17
2023-05-01T09:21:57.647Z,76.98
2023-05-01T09:22:57.618Z,59.58
2023-05-01T09:23:57.597Z,46.79
2023-05-01T09:24:57.640Z,50.81
2023-05-01T09:25:57.696Z,64.21
2023-05-01T09:26:57.774Z,59.29
2023-05-01T09:27:57.773Z,57.66
2023-05-01T09:28:57.877Z,68.41
2023-05-01T09:29:58.039Z,85.20
2023-05-01T09:30:57.812Z,73.29
2023-05-01T09:31:57.845Z,53.33
2023-05-01T09:32:57.895Z,60.13
2023-05-01T09:33:57.914Z,47.08
2023-05-01T09:34:58.002Z,52.18
2023-05-01T09:35:58.049Z,47.77
2023-05-01T09:36:58.028Z,17.54
2023-05-01T09:37:58.014Z,29.93
2023-05-01T09:38:58.034Z,32.00
2023-05-01T09:39:58.268Z,25.00
2023-05-01T09:40:58.094Z,28.56
2023-05-01T09:41:58.128Z,49.78
2023-05-01T09:42:58.071Z,60.78
2023-05-01T09:43:58.106Z,68.02
2023-05-01T09:44:58.097Z,49.27
2023-05-01T09:45:58.273Z,25.00
2023-05-01T09:46:58.281Z,31.47
2023-05-01T09:47:58.332Z,36.18
2023-05-01T09:48:58.335Z,43.84
2023-05-01T09:49:58.561Z,31.71
2023-05-01T09:50:58.363Z,31.11
2023-05-01T09:51:58.401Z,53.80
2023-05-01T09:52:58.379Z,24.35
2023-05-01T09:53:58.411Z,23.83
2023-05-01T09:54:58.451Z,23.96
2023-05-01T09:55:58.452Z,26.76
2023-05-01T09:56:58.534Z,27.92
2023-05-01T09:57:58.468Z,24.07
2023-05-01T09:58:58.517Z,27.45
2023-05-01T09:59:58.663Z,21.77
2023-05-01T10:00:58.703Z,38.65
2023-05-01T10:01:58.747Z,55.87
2023-05-01T10:02:58.750Z,45.98
2023-05-01T10:03:58.861Z,33.40
2023-05-01T10:04:58.781Z,25.76
2023-05-01T10:05:58.791Z,33.96
2023-05-01T10:06:58.796Z,33.39
2023-05-01T10:08:58.908Z,50.40
2023-05-01T10:10:01.495Z,51.99
2023-05-01T10:10:58.957Z,55.95
2023-05-01T10:11:59.007Z,55.13
2023-05-01T10:12:59.019Z,65.41
2023-05-01T10:13:58.994Z,60.74
2023-05-01T10:15:00.532Z,60.89
2023-05-01T10:15:58.945Z,36.95
2023-05-01T10:16:59.096Z,33.78
2023-05-01T10:17:59.024Z,53.86
2023-05-01T10:18:59.023Z,73.94
2023-05-01T10:19:59.087Z,87.49
2023-05-01T10:20:58.942Z,101.33
2023-05-01T10:21:58.969Z,94.72
2023-05-01T10:22:58.955Z,104.60
2023-05-01T10:23:58.885Z,104.87
2023-05-01T10:24:58.902Z,76.62
2023-05-01T10:25:59.824Z,71.30
2023-05-01T10:26:58.879Z,83.98
2023-05-01T10:27:58.865Z,94.27
2023-05-01T10:28:58.906Z,82.16
2023-05-01T10:29:59.187Z,86.70
2023-05-01T10:30:58.982Z,91.84
2023-05-01T10:31:59.103Z,91.97
2023-05-01T10:32:59.029Z,81.39
2023-05-01T10:33:58.881Z,82.20
2023-05-01T10:34:59.099Z,83.71
2023-05-01T10:35:58.972Z,86.24
2023-05-01T10:36:58.980Z,59.59
2023-05-01T10:37:58.969Z,63.14
2023-05-01T10:38:58.986Z,63.59
2023-05-01T10:39:59.112Z,52.96
2023-05-01T10:40:59.138Z,54.61
2023-05-01T10:41:59.181Z,59.44
2023-05-01T10:42:59.074Z,52.97
2023-05-01T10:43:59.125Z,62.74
2023-05-01T10:44:59.098Z,46.73
2023-05-01T10:45:59.161Z,48.01
2023-05-01T10:46:59.182Z,38.99
2023-05-01T10:47:59.246Z,45.14
2023-05-01T10:48:59.144Z,41.07
2023-05-01T10:49:59.149Z,47.72
2023-05-01T10:50:59.236Z,43.59
2023-05-01T10:51:59.287Z,39.43
2023-05-01T10:52:59.238Z,36.68
2023-05-01T10:53:59.272Z,28.35
2023-05-01T10:54:59.310Z,22.55
2023-05-01T10:55:59.299Z,29.59
2023-05-01T10:56:59.392Z,32.19
2023-05-01T10:57:59.431Z,32.12
2023-05-01T10:58:59.474Z,27.37
2023-05-01T10:59:59.447Z,27.93
2023-05-01T11:00:59.546Z,22.66
2023-05-01T11:01:59.604Z,7.48
2023-05-01T11:02:59.686Z,22.97
2023-05-01T11:03:59.676Z,32.37
2023-05-01T11:04:59.938Z,25.60
2023-05-01T11:05:59.942Z,32.76
2023-05-01T11:06:59.934Z,30.73
2023-05-01T11:07:59.883Z,31.23
2023-05-01T11:08:59.801Z,44.31
2023-05-01T11:09:59.910Z,55.17
2023-05-01T11:10:59.946Z,43.50
2023-05-01T11:12:00.057Z,64.35
2023-05-01T11:13:00.086Z,44.52
2023-05-01T11:14:00.054Z,18.34
2023-05-01T11:15:00.230Z,24.54
2023-05-01T11:16:00.203Z,26.86
2023-05-01T11:17:00.275Z,36.73
2023-05-01T11:18:00.250Z,62.89
2023-05-01T11:19:00.316Z,77.41
2023-05-01T11:20:00.347Z,67.13
2023-05-01T11:21:00.411Z,49.00
2023-05-01T11:22:00.415Z,30.99
2023-05-01T11:23:00.423Z,26.64
2023-05-01T11:24:00.422Z,27.09
2023-05-01T11:25:00.569Z,19.77
2023-05-01T11:26:00.434Z,25.34
2023-05-01T11:27:01.091Z,24.66
2023-05-01T11:28:00.464Z,40.26
2023-05-01T11:29:00.505Z,39.22
2023-05-01T11:30:00.599Z,37.16
2023-05-01T11:31:00.568Z,33.20
2023-05-01T11:32:00.824Z,37.04
2023-05-01T11:33:00.776Z,44.87
2023-05-01T11:34:00.685Z,41.89
2023-05-01T11:35:00.754Z,43.79
2023-05-01T11:36:00.785Z,43.77
2023-05-01T11:37:00.826Z,47.78
2023-05-01T11:38:00.832Z,30.90
2023-05-01T11:39:00.865Z,37.77
2023-05-01T11:40:00.940Z,30.56
2023-05-01T11:41:00.949Z,37.12
2023-05-01T11:42:00.977Z,32.67
2023-05-01T11:43:00.963Z,25.00
2023-05-01T11:44:01.007Z,36.32
2023-05-01T11:45:01.036Z,35.38
2023-05-01T11:46:01.086Z,41.94
2023-05-01T11:47:01.196Z,54.29
2023-05-01T11:48:03.665Z,43.32
2023-05-01T11:49:01.093Z,44.45
2023-05-01T11:50:01.129Z,37.53
2023-05-01T11:51:01.113Z,33.47
2023-05-01T11:52:01.141Z,25.01
2023-05-01T11:53:01.060Z,24.97
2023-05-01T11:54:01.156Z,33.02
2023-05-01T11:55:01.421Z,34.65
2023-05-01T11:56:01.158Z,22.12
2023-05-01T11:57:01.198Z,31.45
2023-05-01T11:58:01.073Z,25.41
2023-05-01T11:59:01.053Z,29.88
2023-05-01T12:00:01.059Z,39.39
2023-05-01T12:01:01.067Z,28.37
2023-05-01T12:02:01.122Z,25.77
2023-05-01T12:03:01.297Z,30.29
2023-05-01T12:04:01.069Z,33.57
2023-05-01T12:05:01.355Z,39.18
2023-05-01T12:06:01.055Z,51.53
2023-05-01T12:07:01.006Z,39.70
2023-05-01T12:08:01.015Z,51.16
2023-05-01T12:09:00.939Z,42.21
2023-05-01T12:10:01.023Z,40.00
2023-05-01T12:11:00.970Z,34.42
2023-05-01T12:12:00.975Z,45.72
2023-05-01T12:13:01.017Z,43.13
2023-05-01T12:14:00.945Z,40.38
2023-05-01T12:15:00.981Z,56.67
2023-05-01T12:16:00.933Z,63.30
2023-05-01T12:17:01.012Z,73.10
2023-05-01T12:18:00.996Z,67.76
2023-05-01T12:19:01.070Z,55.57
2023-05-01T12:20:00.894Z,54.73
2023-05-01T12:21:00.904Z,50.01
2023-05-01T12:22:00.923Z,56.58
2023-05-01T12:23:00.922Z,58.25
2023-05-01T12:24:01.203Z,56.90
2023-05-01T12:25:00.963Z,53.28
2023-05-01T12:26:00.915Z,51.58
2023-05-01T12:27:00.860Z,47.77
2023-05-01T12:28:00.863Z,50.27
2023-05-01T12:29:00.894Z,32.74
2023-05-01T12:30:00.870Z,25.27
2023-05-01T12:31:03.333Z,33.78
2023-05-01T12:32:00.911Z,30.06
2023-05-01T12:33:00.999Z,28.30
2023-05-01T12:34:00.810Z,37.01
2023-05-01T12:35:01.041Z,23.36
2023-05-01T12:36:00.795Z,22.28
2023-05-01T12:37:00.794Z,25.34
2023-05-01T12:38:00.809Z,21.50
2023-05-01T12:39:01.114Z,34.92
2023-05-01T12:40:00.828Z,24.56
2023-05-01T12:41:00.763Z,25.14
2023-05-01T12:42:00.733Z,29.98
2023-05-01T12:43:00.840Z,28.97
2023-05-01T12:44:00.756Z,26.07